createdAt,value
2018-05-09T00:00:00.292Z,14.32
2018-05-09T00:01:00.368Z,14.32
2018-05-09T00:02:00.392Z,14.31
2018-05-09T00:03:00.432Z,14.31
2018-05-09T00:04:00.482Z,14.35
2018-05-09T00:05:00.534Z,14.28
2018-05-09T00:06:00.621Z,14.28
2018-05-09T00:07:00.641Z,14.35
2018-05-09T00:08:00.677Z,14.38
2018-05-09T00:09:00.726Z,14.37
2018-05-09T00:10:00.781Z,14.37
2018-05-09T00:11:00.845Z,14.46
2018-05-09T00:12:00.955Z,14.43
2018-05-09T00:13:00.926Z,14.46
2018-05-09T00:14:00.971Z,14.42
2018-05-09T00:15:01.018Z,14.43
2018-05-09T00:16:01.067Z,14.43
2018-05-09T00:17:01.150Z,14.46
2018-05-09T00:18:01.168Z,14.35
2018-05-09T00:19:01.217Z,14.46
2018-05-09T00:20:01.263Z,14.42
2018-05-09T00:21:01.311Z,14.34
2018-05-09T00:22:01.404Z,14.31
2018-05-09T00:23:01.411Z,14.24
2018-05-09T00:24:01.459Z,14.27
2018-05-09T00:25:01.511Z,14.13
2018-05-09T00:26:01.560Z,14.09
2018-05-09T00:27:01.648Z,13.96
2018-05-09T00:28:01.653Z,14.01
2018-05-09T00:29:01.704Z,13.92
2018-05-09T00:30:01.753Z,13.89
2018-05-09T00:31:01.807Z,13.87
2018-05-09T00:32:01.872Z,13.87
2018-05-09T00:33:01.898Z,13.87
2018-05-09T00:34:01.950Z,13.77
2018-05-09T00:35:01.996Z,13.83
2018-05-09T00:36:02.066Z,13.76
2018-05-09T00:37:02.131Z,13.79
2018-05-09T00:38:02.146Z,13.71
2018-05-09T00:39:02.192Z,13.71
2018-05-09T00:40:02.239Z,13.70
2018-05-09T00:41:02.288Z,13.61
2018-05-09T00:42:02.362Z,13.70
2018-05-09T00:43:02.422Z,13.59
2018-05-09T00:44:02.436Z,13.55
2018-05-09T00:45:02.490Z,13.55
2018-05-09T00:46:02.533Z,13.59
2018-05-09T00:47:02.582Z,13.55
2018-05-09T00:48:02.662Z,13.55
2018-05-09T00:49:02.678Z,13.61
2018-05-09T00:50:02.752Z,13.52
2018-05-09T00:51:02.776Z,13.55
2018-05-09T00:52:02.825Z,13.55
2018-05-09T00:53:02.911Z,13.56
2018-05-09T00:54:02.921Z,13.58
2018-05-09T00:55:02.978Z,13.55
2018-05-09T00:56:03.017Z,13.54
2018-05-09T00:57:03.070Z,13.49
2018-05-09T00:58:03.146Z,13.43
2018-05-09T00:59:03.187Z,13.40
2018-05-09T01:00:03.214Z,13.32
2018-05-09T01:01:03.261Z,13.36
2018-05-09T01:02:03.311Z,13.37
2018-05-09T01:03:03.389Z,13.22
2018-05-09T01:04:03.406Z,13.21
2018-05-09T01:05:03.460Z,13.21
2018-05-09T01:06:03.508Z,13.12
2018-05-09T01:07:03.554Z,13.12
2018-05-09T01:08:03.625Z,13.07
2018-05-09T01:09:03.650Z,13.20
2018-05-09T01:10:03.730Z,13.07
2018-05-09T01:11:03.747Z,13.03
2018-05-09T01:12:03.795Z,13.00
2018-05-09T01:13:03.848Z,13.03
2018-05-09T01:14:03.936Z,13.07
2018-05-09T01:15:03.942Z,13.06
2018-05-09T01:16:03.993Z,13.06
2018-05-09T01:17:04.043Z,13.00
2018-05-09T01:18:04.086Z,13.00
2018-05-09T01:19:04.160Z,13.03
2018-05-09T01:20:04.211Z,13.03
2018-05-09T01:21:04.232Z,13.00
2018-05-09T01:22:04.283Z,13.03
2018-05-09T01:23:04.330Z,13.00
2018-05-09T01:24:04.377Z,13.03
2018-05-09T01:25:04.449Z,13.00
2018-05-09T01:26:04.473Z,12.97
2018-05-09T01:27:04.522Z,12.99
2018-05-09T01:28:04.577Z,12.95
2018-05-09T01:29:04.620Z,13.00
2018-05-09T01:30:04.691Z,12.96
2018-05-09T01:31:04.715Z,12.99
2018-05-09T01:32:04.766Z,12.97
2018-05-09T01:33:04.813Z,12.95
2018-05-09T01:34:05.371Z,12.89
2018-05-09T01:35:04.931Z,12.95
2018-05-09T01:36:04.957Z,12.99
2018-05-09T01:37:05.005Z,12.93
2018-05-09T01:38:05.056Z,12.93
2018-05-09T01:39:05.102Z,12.92
2018-05-09T01:40:05.194Z,13.00
2018-05-09T01:41:05.199Z,13.02
2018-05-09T01:42:05.248Z,13.02
2018-05-09T01:43:05.294Z,12.96
2018-05-09T01:44:05.343Z,12.97
2018-05-09T01:45:05.416Z,12.82
2018-05-09T01:46:05.442Z,12.79
2018-05-09T01:47:05.517Z,12.81
2018-05-09T01:48:05.537Z,12.85
2018-05-09T01:49:05.585Z,12.81
2018-05-09T01:50:05.636Z,12.71
2018-05-09T01:51:05.686Z,12.79
2018-05-09T01:52:05.753Z,12.69
2018-05-09T01:53:05.779Z,12.62
2018-05-09T01:54:05.831Z,12.63
2018-05-09T01:55:06.355Z,12.57
2018-05-09T01:56:05.923Z,12.45
2018-05-09T01:57:06.009Z,12.56
2018-05-09T01:58:06.019Z,12.49
2018-05-09T01:59:06.071Z,12.49
2018-05-09T02:00:06.116Z,12.49
2018-05-09T02:01:06.164Z,12.56
2018-05-09T02:02:06.239Z,12.49
2018-05-09T02:03:06.262Z,12.51
2018-05-09T02:04:06.312Z,12.54
2018-05-09T02:05:06.358Z,12.45
2018-05-09T02:06:06.424Z,12.49
2018-05-09T02:07:06.477Z,12.37
2018-05-09T02:08:06.525Z,12.39
2018-05-09T02:09:06.552Z,12.34
2018-05-09T02:10:06.598Z,12.39
2018-05-09T02:11:06.651Z,12.29
2018-05-09T02:12:06.693Z,12.34
2018-05-09T02:13:06.789Z,12.34
2018-05-09T02:14:06.792Z,12.39
2018-05-09T02:15:06.840Z,12.46
2018-05-09T02:16:06.887Z,12.37
2018-05-09T02:17:06.934Z,12.39
2018-05-09T02:18:07.009Z,12.37
2018-05-09T02:19:07.059Z,12.42
2018-05-09T02:20:07.084Z,12.45
2018-05-09T02:21:07.127Z,12.42
2018-05-09T02:22:07.175Z,12.46
2018-05-09T02:23:07.223Z,12.42
2018-05-09T02:24:07.334Z,12.41
2018-05-09T02:25:07.857Z,12.37
2018-05-09T02:26:07.373Z,12.34
2018-05-09T02:27:07.415Z,12.39
2018-05-09T02:28:07.463Z,12.39
2018-05-09T02:29:07.539Z,12.41
2018-05-09T02:30:07.559Z,12.39
2018-05-09T02:31:07.705Z,12.48
2018-05-09T02:32:07.656Z,12.39
2018-05-09T02:33:07.712Z,12.37
2018-05-09T02:34:07.778Z,12.29
2018-05-09T02:35:07.799Z,12.45
2018-05-09T02:36:07.846Z,12.38
2018-05-09T02:37:07.894Z,12.42
2018-05-09T02:38:07.945Z,12.27
2018-05-09T02:39:08.017Z,12.33
2018-05-09T02:40:08.040Z,12.39
2018-05-09T02:41:08.087Z,12.31
2018-05-09T02:42:08.135Z,12.27
2018-05-09T02:43:08.181Z,12.20
2018-05-09T02:44:08.264Z,12.15
2018-05-09T02:45:08.303Z,12.15
2018-05-09T02:46:08.328Z,12.08
2018-05-09T02:47:08.375Z,12.08
2018-05-09T02:48:08.432Z,12.02
2018-05-09T02:49:08.498Z,12.01
2018-05-09T02:50:08.551Z,11.96
2018-05-09T02:51:08.565Z,12.02
2018-05-09T02:52:08.615Z,12.04
2018-05-09T02:53:08.664Z,11.96
2018-05-09T02:54:08.713Z,11.97
2018-05-09T02:55:08.782Z,11.90
2018-05-09T02:56:08.833Z,11.97
2018-05-09T02:57:09.332Z,11.86
2018-05-09T02:58:08.901Z,11.77
2018-05-09T02:59:08.950Z,11.71
2018-05-09T03:00:08.998Z,11.65
2018-05-09T03:01:09.071Z,11.56
2018-05-09T03:02:09.095Z,11.57
2018-05-09T03:03:09.142Z,11.52
2018-05-09T03:04:09.190Z,11.47
2018-05-09T03:05:09.239Z,11.50
2018-05-09T03:06:09.318Z,11.52
2018-05-09T03:07:09.331Z,11.50
2018-05-09T03:08:09.379Z,11.39
2018-05-09T03:09:09.427Z,11.39
2018-05-09T03:10:09.474Z,11.36
2018-05-09T03:11:09.557Z,11.32
2018-05-09T03:12:09.570Z,11.39
2018-05-09T03:13:09.619Z,11.31
2018-05-09T03:14:09.664Z,11.34
2018-05-09T03:15:09.713Z,11.32
2018-05-09T03:16:09.802Z,11.39
2018-05-09T03:17:09.808Z,11.44
2018-05-09T03:18:09.863Z,11.43
2018-05-09T03:19:09.904Z,11.29
2018-05-09T03:20:09.952Z,11.32
2018-05-09T03:21:10.026Z,11.34
2018-05-09T03:22:10.071Z,11.29
2018-05-09T03:23:10.093Z,11.32
2018-05-09T03:24:10.145Z,11.27
2018-05-09T03:25:10.189Z,11.43
2018-05-09T03:26:10.236Z,11.46
2018-05-09T03:27:10.311Z,11.36
2018-05-09T03:28:10.331Z,11.38
2018-05-09T03:29:10.379Z,11.44
2018-05-09T03:30:10.429Z,11.35
2018-05-09T03:31:10.475Z,11.35
2018-05-09T03:32:10.547Z,11.25
2018-05-09T03:33:10.574Z,11.20
2018-05-09T03:34:10.617Z,11.06
2018-05-09T03:35:10.664Z,11.07
2018-05-09T03:36:10.716Z,11.06
2018-05-09T03:37:10.783Z,11.01
2018-05-09T03:38:10.832Z,11.10
2018-05-09T03:39:10.855Z,11.03
2018-05-09T03:40:10.906Z,11.07
2018-05-09T03:41:10.957Z,11.07
2018-05-09T03:42:11.001Z,11.19
2018-05-09T03:43:11.069Z,11.16
2018-05-09T03:44:11.093Z,11.16
2018-05-09T03:45:11.143Z,11.28
2018-05-09T03:46:11.191Z,11.28
2018-05-09T03:47:11.236Z,11.20
2018-05-09T03:48:11.324Z,11.19
2018-05-09T03:49:11.330Z,11.35
2018-05-09T03:50:11.382Z,11.25
2018-05-09T03:51:11.427Z,11.29
2018-05-09T03:52:11.473Z,11.35
2018-05-09T03:53:11.619Z,11.31
2018-05-09T03:54:11.569Z,11.35
2018-05-09T03:55:11.615Z,11.35
2018-05-09T03:56:11.663Z,11.34
2018-05-09T03:57:11.713Z,11.20
2018-05-09T03:58:11.782Z,11.21
2018-05-09T03:59:11.839Z,11.20
2018-05-09T04:00:11.855Z,11.14
2018-05-09T04:01:11.904Z,11.07
2018-05-09T04:02:11.952Z,10.98
2018-05-09T04:03:11.999Z,11.11
2018-05-09T04:04:12.083Z,11.11
2018-05-09T04:05:12.132Z,11.02
2018-05-09T04:06:12.143Z,11.11
2018-05-09T04:07:12.191Z,11.02
2018-05-09T04:08:12.235Z,11.07
2018-05-09T04:09:12.311Z,11.11
2018-05-09T04:10:12.353Z,11.07
2018-05-09T04:11:12.377Z,11.13
2018-05-09T04:12:12.422Z,11.07
2018-05-09T04:13:12.483Z,11.10
2018-05-09T04:14:12.518Z,11.20
2018-05-09T04:15:12.591Z,11.24
2018-05-09T04:16:12.612Z,11.20
2018-05-09T04:17:12.663Z,11.11
2018-05-09T04:18:12.712Z,11.20
2018-05-09T04:19:12.754Z,11.27
2018-05-09T04:20:12.830Z,11.29
2018-05-09T04:21:12.851Z,11.27
2018-05-09T04:22:12.898Z,11.20
2018-05-09T04:23:12.946Z,11.25
2018-05-09T04:24:12.992Z,11.24
2018-05-09T04:25:13.063Z,11.16
2018-05-09T04:26:13.114Z,11.19
2018-05-09T04:27:13.133Z,11.25
2018-05-09T04:28:13.196Z,11.24
2018-05-09T04:29:13.232Z,11.21
2018-05-09T04:30:13.280Z,11.28
2018-05-09T04:31:13.352Z,11.21
2018-05-09T04:32:13.372Z,11.24
2018-05-09T04:33:13.423Z,11.24
2018-05-09T04:34:13.466Z,11.17
2018-05-09T04:35:15.370Z,11.07
2018-05-09T04:36:13.653Z,11.13
2018-05-09T04:37:13.612Z,11.14
2018-05-09T04:38:13.657Z,11.11
2018-05-09T04:39:13.703Z,11.19
2018-05-09T04:40:13.752Z,11.19
2018-05-09T04:41:13.831Z,11.10
2018-05-09T04:42:13.846Z,11.14
2018-05-09T04:43:13.894Z,11.13
2018-05-09T04:44:13.941Z,11.09
2018-05-09T04:45:13.988Z,11.07
2018-05-09T04:46:14.076Z,11.14
2018-05-09T04:47:14.082Z,11.16
2018-05-09T04:48:14.135Z,11.25
2018-05-09T04:49:14.249Z,11.19
2018-05-09T04:50:14.230Z,11.21
2018-05-09T04:51:14.294Z,11.24
2018-05-09T04:52:14.344Z,11.35
2018-05-09T04:53:14.369Z,11.28
2018-05-09T04:54:14.415Z,11.35
2018-05-09T04:55:14.462Z,11.46
2018-05-09T04:56:14.511Z,11.47
2018-05-09T04:57:14.582Z,11.53
2018-05-09T04:58:14.617Z,11.50
2018-05-09T04:59:14.651Z,11.52
2018-05-09T05:00:14.699Z,11.49
2018-05-09T05:01:14.746Z,11.54
2018-05-09T05:02:14.825Z,11.52
2018-05-09T05:03:14.846Z,11.56
2018-05-09T05:04:14.894Z,11.61
2018-05-09T05:05:14.939Z,11.57
2018-05-09T05:06:14.984Z,11.61
2018-05-09T05:07:15.075Z,11.68
2018-05-09T05:08:15.080Z,11.77
2018-05-09T05:09:15.127Z,11.74
2018-05-09T05:10:15.177Z,11.74
2018-05-09T05:11:15.224Z,11.86
2018-05-09T05:12:15.324Z,11.82
2018-05-09T05:13:15.319Z,11.85
2018-05-09T05:14:15.367Z,11.86
2018-05-09T05:15:15.416Z,11.83
2018-05-09T05:16:15.467Z,11.93
2018-05-09T05:17:15.532Z,11.93
2018-05-09T05:18:15.598Z,11.99
2018-05-09T05:19:15.605Z,12.08
2018-05-09T05:20:15.653Z,12.11
2018-05-09T05:21:15.701Z,12.19
2018-05-09T05:22:15.750Z,12.16
2018-05-09T05:23:15.835Z,12.29
2018-05-09T05:24:15.844Z,12.30
2018-05-09T05:25:15.893Z,12.42
2018-05-09T05:26:15.944Z,12.41
2018-05-09T05:27:15.987Z,12.49
2018-05-09T05:28:16.069Z,12.51
2018-05-09T05:29:16.085Z,12.54
2018-05-09T05:30:16.131Z,12.69
2018-05-09T05:31:16.186Z,12.77
2018-05-09T05:32:16.226Z,12.93
2018-05-09T05:33:16.302Z,13.03
2018-05-09T05:34:16.350Z,13.03
2018-05-09T05:35:16.437Z,13.12
2018-05-09T05:36:16.418Z,13.22
2018-05-09T05:37:16.467Z,13.32
2018-05-09T05:38:16.515Z,13.30
2018-05-09T05:39:16.603Z,13.41
2018-05-09T05:40:16.613Z,13.47
2018-05-09T05:41:16.659Z,13.51
2018-05-09T05:42:16.708Z,13.49
2018-05-09T05:43:16.757Z,13.61
2018-05-09T05:44:16.837Z,13.67
2018-05-09T05:45:16.868Z,13.70
2018-05-09T05:46:16.903Z,13.76
2018-05-09T05:47:16.949Z,13.79
2018-05-09T05:48:16.997Z,13.81
2018-05-09T05:49:17.070Z,13.89
2018-05-09T05:50:17.149Z,13.94
2018-05-09T05:51:17.144Z,13.96
2018-05-09T05:52:17.192Z,13.96
2018-05-09T05:53:17.244Z,14.01
2018-05-09T05:54:17.289Z,14.10
2018-05-09T05:55:17.379Z,14.20
2018-05-09T05:56:17.386Z,14.21
2018-05-09T05:57:17.436Z,14.24
2018-05-09T05:58:17.487Z,14.21
2018-05-09T05:59:17.531Z,14.32
2018-05-09T06:00:17.612Z,14.27
2018-05-09T06:01:17.631Z,14.21
2018-05-09T06:02:17.681Z,14.39
2018-05-09T06:03:17.729Z,14.35
2018-05-09T06:04:17.775Z,14.37
2018-05-09T06:05:17.860Z,14.46
2018-05-09T06:06:17.895Z,14.47
2018-05-09T06:07:17.941Z,14.56
2018-05-09T06:08:17.976Z,14.61
2018-05-09T06:09:18.021Z,14.71
2018-05-09T06:10:18.106Z,14.83
2018-05-09T06:11:18.119Z,14.81
2018-05-09T06:12:18.171Z,14.75
2018-05-09T06:13:18.219Z,14.78
2018-05-09T06:14:18.268Z,14.69
2018-05-09T06:15:18.347Z,14.78
2018-05-09T06:16:18.364Z,14.83
2018-05-09T06:17:18.432Z,14.88
2018-05-09T06:18:18.468Z,14.87
2018-05-09T06:19:18.513Z,14.95
2018-05-09T06:20:18.590Z,15.03
2018-05-09T06:21:18.612Z,15.11
2018-05-09T06:22:18.662Z,15.09
2018-05-09T06:23:18.713Z,15.11
2018-05-09T06:24:18.867Z,15.21
2018-05-09T06:25:18.848Z,15.27
2018-05-09T06:26:18.857Z,15.31
2018-05-09T06:27:18.906Z,15.28
2018-05-09T06:28:18.956Z,15.36
2018-05-09T06:29:19.004Z,15.41
2018-05-09T06:30:19.078Z,15.51
2018-05-09T06:31:19.105Z,15.41
2018-05-09T06:32:19.174Z,15.54
2018-05-09T06:33:19.205Z,15.60
2018-05-09T06:34:19.257Z,15.61
2018-05-09T06:35:19.300Z,15.66
2018-05-09T06:36:19.349Z,15.52
2018-05-09T06:37:19.423Z,15.38
2018-05-09T06:38:19.451Z,15.35
2018-05-09T06:39:19.507Z,15.36
2018-05-09T06:40:19.548Z,15.33
2018-05-09T06:41:19.642Z,15.63
2018-05-09T06:42:19.654Z,15.92
2018-05-09T06:43:19.751Z,16.52
2018-05-09T06:44:19.745Z,17.03
2018-05-09T06:45:19.851Z,17.66
2018-05-09T06:46:19.877Z,17.92
2018-05-09T06:47:19.922Z,18.33
2018-05-09T06:48:19.945Z,18.83
2018-05-09T06:49:19.995Z,19.02
2018-05-09T06:50:20.044Z,18.94
2018-05-09T06:51:20.125Z,19.20
2018-05-09T06:52:20.144Z,19.28
2018-05-09T06:53:20.197Z,19.48
2018-05-09T06:54:20.246Z,19.54
2018-05-09T06:55:20.304Z,20.02
2018-05-09T06:56:20.371Z,20.28
2018-05-09T06:57:20.396Z,20.47
2018-05-09T06:58:20.470Z,20.89
2018-05-09T06:59:20.495Z,20.96
2018-05-09T07:00:20.547Z,21.04
2018-05-09T07:01:20.596Z,21.51
2018-05-09T07:02:20.672Z,21.90
2018-05-09T07:03:20.723Z,21.59
2018-05-09T07:04:20.751Z,21.82
2018-05-09T07:05:20.801Z,22.09
2018-05-09T07:06:20.865Z,22.06
2018-05-09T07:07:20.900Z,22.07
2018-05-09T07:08:20.981Z,21.94
2018-05-09T07:09:21.002Z,22.04
2018-05-09T07:10:21.057Z,21.90
2018-05-09T07:11:21.106Z,22.27
2018-05-09T07:12:21.184Z,22.29
2018-05-09T07:13:21.214Z,22.06
2018-05-09T07:14:21.284Z,22.32
2018-05-09T07:15:21.312Z,21.46
2018-05-09T07:16:21.367Z,21.85
2018-05-09T07:17:21.415Z,21.98
2018-05-09T07:18:21.490Z,21.60
2018-05-09T07:19:21.525Z,21.30
2018-05-09T07:20:21.569Z,21.57
2018-05-09T07:21:21.625Z,20.81
2018-05-09T07:22:21.674Z,20.81
2018-05-09T07:23:21.748Z,20.83
2018-05-09T07:24:21.781Z,20.33
2018-05-09T07:25:21.833Z,20.34
2018-05-09T07:26:21.906Z,20.08
2018-05-09T07:27:21.932Z,19.84
2018-05-09T07:28:22.006Z,20.23
2018-05-09T07:29:22.040Z,20.08
2018-05-09T07:30:22.087Z,19.78
2018-05-09T07:31:22.138Z,19.72
2018-05-09T07:32:22.215Z,19.88
2018-05-09T07:33:22.271Z,19.35
2018-05-09T07:34:22.295Z,19.35
2018-05-09T07:35:22.429Z,19.46
2018-05-09T07:36:22.398Z,19.29
2018-05-09T07:37:22.448Z,18.99
2018-05-09T07:38:22.543Z,19.58
2018-05-09T07:39:22.554Z,20.05
2018-05-09T07:40:22.604Z,20.15
2018-05-09T07:41:22.656Z,19.91
2018-05-09T07:42:22.706Z,20.15
2018-05-09T07:43:22.781Z,19.86
2018-05-09T07:44:22.885Z,19.95
2018-05-09T07:45:22.860Z,19.65
2018-05-09T07:46:22.913Z,19.69
2018-05-09T07:47:22.967Z,20.27
2018-05-09T07:48:23.038Z,20.74
2018-05-09T07:49:23.087Z,21.20
2018-05-09T07:50:23.120Z,21.79
2018-05-09T07:51:23.167Z,21.91
2018-05-09T07:52:23.222Z,21.97
2018-05-09T07:53:23.302Z,22.06
2018-05-09T07:54:23.349Z,22.16
2018-05-09T07:55:23.373Z,22.29
2018-05-09T07:56:23.427Z,22.68
2018-05-09T07:57:23.478Z,22.75
2018-05-09T07:58:23.532Z,22.71
2018-05-09T07:59:23.606Z,22.23
2018-05-09T08:00:23.636Z,21.95
2018-05-09T08:01:23.686Z,21.50
2018-05-09T08:02:23.739Z,21.32
2018-05-09T08:03:23.790Z,21.06
2018-05-09T08:04:23.866Z,20.95
2018-05-09T08:05:23.896Z,21.08
2018-05-09T08:06:23.946Z,20.79
2018-05-09T08:07:24.000Z,21.05
2018-05-09T08:08:24.051Z,20.90
2018-05-09T08:09:24.128Z,20.79
2018-05-09T08:10:24.179Z,20.13
2018-05-09T08:11:24.209Z,20.68
2018-05-09T08:12:24.261Z,21.27
2018-05-09T08:13:24.312Z,21.99
2018-05-09T08:14:24.372Z,22.41
2018-05-09T08:15:24.440Z,22.80
2018-05-09T08:16:24.467Z,22.59
2018-05-09T08:17:24.522Z,22.44
2018-05-09T08:18:24.574Z,22.69
2018-05-09T08:19:24.629Z,23.11
2018-05-09T08:20:24.701Z,22.49
2018-05-09T08:21:24.735Z,22.14
2018-05-09T08:22:24.786Z,22.13
2018-05-09T08:23:24.835Z,22.44
2018-05-09T08:24:24.890Z,22.12
2018-05-09T08:25:24.968Z,21.64
2018-05-09T08:26:24.998Z,21.08
2018-05-09T08:27:25.048Z,20.58
2018-05-09T08:28:25.100Z,20.33
2018-05-09T08:29:25.152Z,20.39
2018-05-09T08:30:25.286Z,19.73
2018-05-09T08:31:25.265Z,19.84
2018-05-09T08:32:25.310Z,20.27
2018-05-09T08:33:25.362Z,20.23
2018-05-09T08:34:25.415Z,20.00
2018-05-09T08:35:25.491Z,20.69
2018-05-09T08:36:25.545Z,20.95
2018-05-09T08:37:25.577Z,21.20
2018-05-09T08:38:25.631Z,22.04
2018-05-09T08:39:25.689Z,22.27
2018-05-09T08:40:25.730Z,22.07
2018-05-09T08:41:25.819Z,22.32
2018-05-09T08:42:25.836Z,22.67
2018-05-09T08:43:25.973Z,22.92
2018-05-09T08:44:25.943Z,23.26
2018-05-09T08:45:25.998Z,23.01
2018-05-09T08:46:26.073Z,23.11
2018-05-09T08:47:26.100Z,22.41
2018-05-09T08:48:26.176Z,22.53
2018-05-09T08:49:26.282Z,21.92
2018-05-09T08:50:26.259Z,21.26
2018-05-09T08:51:26.309Z,20.56
2018-05-09T08:52:26.389Z,20.34
2018-05-09T08:53:26.427Z,20.27
2018-05-09T08:54:26.472Z,19.80
2018-05-09T08:55:26.605Z,20.08
2018-05-09T08:56:26.576Z,21.06
2018-05-09T08:57:26.662Z,22.02
2018-05-09T08:58:26.685Z,22.34
2018-05-09T08:59:26.739Z,22.62
2018-05-09T09:00:26.789Z,22.54
2018-05-09T09:01:26.840Z,22.09
2018-05-09T09:02:26.927Z,21.50
2018-05-09T09:03:26.946Z,21.02
2018-05-09T09:04:27.030Z,21.27
2018-05-09T09:05:27.058Z,21.32
2018-05-09T09:06:27.189Z,21.30
2018-05-09T09:07:27.187Z,21.39
2018-05-09T09:08:27.241Z,21.74
2018-05-09T09:09:27.265Z,21.98
2018-05-09T09:10:27.319Z,22.56
2018-05-09T09:11:27.374Z,22.89
2018-05-09T09:12:27.424Z,22.23
2018-05-09T09:13:27.501Z,21.81
2018-05-09T09:14:27.534Z,22.01
2018-05-09T09:15:27.613Z,22.59
2018-05-09T09:16:27.638Z,22.99
2018-05-09T09:17:27.691Z,23.08
2018-05-09T09:18:27.774Z,22.67
2018-05-09T09:19:27.801Z,22.06
2018-05-09T09:20:27.852Z,21.90
2018-05-09T09:21:27.909Z,21.78
2018-05-09T09:22:27.962Z,21.61
2018-05-09T09:23:28.044Z,21.82
2018-05-09T09:24:28.066Z,21.81
2018-05-09T09:25:28.130Z,21.48
2018-05-09T09:26:28.179Z,21.48
2018-05-09T09:27:28.227Z,22.01
2018-05-09T09:28:28.304Z,22.65
2018-05-09T09:29:28.357Z,22.94
2018-05-09T09:30:28.394Z,22.29
2018-05-09T09:31:28.440Z,22.02
2018-05-09T09:32:28.495Z,21.64
2018-05-09T09:33:28.548Z,21.04
2018-05-09T09:34:28.627Z,21.46
2018-05-09T09:35:28.654Z,22.14
2018-05-09T09:36:28.708Z,22.64
2018-05-09T09:37:28.764Z,23.08
2018-05-09T09:38:28.818Z,23.11
2018-05-09T09:39:28.911Z,21.82
2018-05-09T09:40:28.925Z,21.26
2018-05-09T09:41:29.026Z,21.20
2018-05-09T09:42:29.031Z,20.84
2018-05-09T09:43:29.087Z,20.25
2018-05-09T09:44:29.166Z,19.83
2018-05-09T09:45:29.218Z,19.47
2018-05-09T09:46:29.246Z,19.57
2018-05-09T09:47:29.299Z,19.40
2018-05-09T09:48:29.356Z,19.65
2018-05-09T09:49:29.407Z,20.02
2018-05-09T09:50:29.484Z,20.18
2018-05-09T09:51:29.514Z,20.20
2018-05-09T09:52:29.567Z,20.24
2018-05-09T09:53:29.628Z,20.50
2018-05-09T09:54:29.671Z,20.87
2018-05-09T09:55:29.752Z,20.99
2018-05-09T09:56:29.780Z,21.13
2018-05-09T09:57:29.834Z,20.93
2018-05-09T09:58:29.883Z,21.24
2018-05-09T09:59:29.942Z,21.23
2018-05-09T10:00:30.022Z,21.90
2018-05-09T10:01:30.061Z,22.28
2018-05-09T10:02:30.096Z,22.62
2018-05-09T10:03:30.151Z,23.07
2018-05-09T10:04:30.200Z,23.47
2018-05-09T10:05:30.281Z,23.90
2018-05-09T10:06:30.338Z,24.22
2018-05-09T10:07:30.366Z,23.86
2018-05-09T10:08:30.417Z,23.83
2018-05-09T10:09:30.471Z,23.57
2018-05-09T10:10:30.550Z,23.38
2018-05-09T10:11:30.621Z,23.68
2018-05-09T10:12:30.636Z,24.07
2018-05-09T10:13:30.688Z,24.45
2018-05-09T10:14:30.744Z,24.60
2018-05-09T10:15:30.796Z,24.87
2018-05-09T10:16:30.885Z,24.79
2018-05-09T10:17:30.912Z,23.87
2018-05-09T10:18:30.964Z,22.84
2018-05-09T10:19:31.019Z,22.74
2018-05-09T10:20:31.076Z,22.52
2018-05-09T10:21:31.168Z,22.43
2018-05-09T10:22:31.184Z,22.35
2018-05-09T10:23:31.243Z,22.32
2018-05-09T10:24:31.299Z,22.71
2018-05-09T10:25:31.350Z,22.56
2018-05-09T10:26:31.432Z,22.60
2018-05-09T10:27:31.484Z,22.82
2018-05-09T10:28:31.518Z,23.38
2018-05-09T10:29:31.572Z,23.87
2018-05-09T10:30:31.628Z,24.19
2018-05-09T10:31:31.704Z,23.62
2018-05-09T10:32:31.765Z,22.99
2018-05-09T10:33:31.792Z,23.14
2018-05-09T10:34:31.853Z,22.35
2018-05-09T10:35:31.912Z,22.16
2018-05-09T10:36:31.956Z,22.06
2018-05-09T10:37:32.038Z,21.71
2018-05-09T10:38:32.066Z,21.92
2018-05-09T10:39:32.121Z,22.16
2018-05-09T10:40:32.194Z,22.38
2018-05-09T10:41:32.234Z,22.89
2018-05-09T10:42:32.320Z,23.57
2018-05-09T10:43:32.368Z,23.32
2018-05-09T10:44:32.395Z,23.04
2018-05-09T10:45:32.464Z,22.96
2018-05-09T10:46:32.506Z,22.94
2018-05-09T10:47:32.637Z,23.32
2018-05-09T10:48:32.613Z,23.40
2018-05-09T10:49:32.671Z,23.50
2018-05-09T10:50:32.725Z,23.52
2018-05-09T10:51:32.786Z,22.59
2018-05-09T10:52:32.863Z,22.06
2018-05-09T10:53:32.889Z,22.06
2018-05-09T10:54:32.969Z,21.76
2018-05-09T10:55:33.000Z,21.46
2018-05-09T10:56:33.053Z,21.35
2018-05-09T10:57:33.107Z,21.14
2018-05-09T10:58:33.187Z,21.32
2018-05-09T10:59:33.253Z,21.08
2018-05-09T11:00:33.269Z,21.08
2018-05-09T11:01:33.323Z,21.30
2018-05-09T11:02:33.377Z,21.99
2018-05-09T11:03:33.430Z,22.68
2018-05-09T11:04:33.525Z,23.26
2018-05-09T11:05:33.540Z,23.90
2018-05-09T11:06:33.606Z,23.86
2018-05-09T11:07:33.648Z,23.77
2018-05-09T11:08:33.708Z,23.23
2018-05-09T11:09:33.781Z,22.78
2018-05-09T11:10:33.976Z,22.43
2018-05-09T11:11:33.867Z,22.50
2018-05-09T11:12:33.921Z,22.87
2018-05-09T11:13:33.983Z,23.35
2018-05-09T11:14:34.030Z,23.80
2018-05-09T11:15:34.111Z,23.39
2018-05-09T11:16:34.162Z,22.62
2018-05-09T11:17:34.268Z,22.74
2018-05-09T11:18:34.249Z,22.56
2018-05-09T11:19:34.310Z,22.12
2018-05-09T11:20:34.363Z,21.76
2018-05-09T11:21:34.443Z,21.99
2018-05-09T11:22:34.471Z,21.99
2018-05-09T11:23:34.528Z,22.31
2018-05-09T11:24:34.643Z,22.72
2018-05-09T11:25:34.633Z,23.23
2018-05-09T11:26:34.725Z,23.89
2018-05-09T11:27:34.745Z,24.37
2018-05-09T11:28:34.803Z,24.76
2018-05-09T11:29:34.865Z,25.05
2018-05-09T11:30:34.913Z,25.27
2018-05-09T11:31:34.989Z,25.27
2018-05-09T11:32:35.026Z,24.64
2018-05-09T11:33:35.076Z,24.44
2018-05-09T11:34:35.134Z,24.34
2018-05-09T11:35:35.187Z,24.23
2018-05-09T11:36:35.268Z,24.32
2018-05-09T11:37:35.325Z,23.75
2018-05-09T11:38:35.357Z,23.07
2018-05-09T11:39:35.414Z,22.39
2018-05-09T11:40:35.472Z,22.06
2018-05-09T11:41:35.548Z,21.90
2018-05-09T11:42:35.590Z,21.95
2018-05-09T11:43:35.660Z,22.43
2018-05-09T11:44:35.699Z,22.75
2018-05-09T11:45:35.747Z,23.07
2018-05-09T11:46:35.816Z,23.50
2018-05-09T11:47:35.859Z,23.22
2018-05-09T11:48:35.939Z,22.89
2018-05-09T11:49:35.970Z,22.78
2018-05-09T11:50:36.027Z,22.65
2018-05-09T11:51:36.083Z,22.60
2018-05-09T11:52:36.143Z,22.53
2018-05-09T11:53:36.217Z,22.47
2018-05-09T11:54:36.250Z,22.52
2018-05-09T11:55:36.305Z,22.97
2018-05-09T11:56:36.362Z,23.55
2018-05-09T11:57:36.422Z,23.97
2018-05-09T11:58:36.513Z,24.29
2018-05-09T11:59:36.525Z,24.31
2018-05-09T12:00:36.583Z,24.23
2018-05-09T12:01:36.637Z,24.22
2018-05-09T12:02:36.701Z,24.20
2018-05-09T12:03:36.773Z,24.29
2018-05-09T12:04:36.833Z,24.47
2018-05-09T12:05:36.872Z,24.63
2018-05-09T12:06:36.917Z,24.53
2018-05-09T12:07:36.976Z,24.53
2018-05-09T12:08:37.030Z,24.71
2018-05-09T12:09:37.113Z,24.52
2018-05-09T12:10:37.162Z,24.14
2018-05-09T12:11:37.198Z,23.76
2018-05-09T12:12:37.259Z,23.14
2018-05-09T12:13:37.315Z,22.77
2018-05-09T12:14:37.393Z,22.62
2018-05-09T12:15:37.428Z,21.92
2018-05-09T12:16:37.483Z,21.64
2018-05-09T12:17:37.539Z,21.67
2018-05-09T12:18:37.594Z,21.17
2018-05-09T12:19:37.672Z,20.95
2018-05-09T12:20:37.729Z,21.21
2018-05-09T12:21:37.761Z,21.59
2018-05-09T12:22:37.818Z,21.91
2018-05-09T12:23:37.874Z,22.19
2018-05-09T12:24:38.027Z,22.46
2018-05-09T12:25:37.985Z,22.56
2018-05-09T12:26:38.038Z,22.43
2018-05-09T12:27:38.098Z,22.41
2018-05-09T12:28:38.148Z,22.78
2018-05-09T12:29:38.237Z,23.05
2018-05-09T12:30:38.263Z,23.15
2018-05-09T12:31:38.332Z,22.80
2018-05-09T12:32:38.371Z,22.43
2018-05-09T12:33:38.428Z,22.78
2018-05-09T12:34:38.515Z,22.31
2018-05-09T12:35:38.538Z,22.28
2018-05-09T12:36:38.598Z,22.22
2018-05-09T12:37:38.652Z,22.27
2018-05-09T12:38:38.735Z,22.29
2018-05-09T12:39:38.787Z,22.16
2018-05-09T12:40:38.876Z,22.20
2018-05-09T12:41:38.878Z,22.14
2018-05-09T12:42:38.958Z,22.10
2018-05-09T12:43:38.987Z,21.90
2018-05-09T12:44:39.046Z,21.75
2018-05-09T12:45:39.102Z,21.79
2018-05-09T12:46:39.157Z,22.31
2018-05-09T12:47:39.239Z,22.67
2018-05-09T12:48:39.325Z,23.02
2018-05-09T12:49:39.327Z,23.15
2018-05-09T12:50:39.404Z,23.42
2018-05-09T12:51:39.436Z,23.22
2018-05-09T12:52:39.494Z,22.75